Flight Track Log - Related Links

Times and Time Zones

All times are in EDT time to prevent confusion due to time zone crossing. See the UAL762 flight status page for this flight to view local times or setup timezone preferences in your user account.


Time Position Orientation Groundspeed Altitude Reporting Facility
EDT Latitude Longitude Course Direction KTS MPH feet Rate Location/Type
Mon 01:29:17 PM 39.8500 -104.7667 316° Northwest 185 213 7,600  Level Denver TRACON
Mon 01:33:10 PM 40.0181 -104.9778 North 328 377 20,000 2,919 Climbing Denver Center
Mon 01:34:13 PM 40.1186 -104.9608 North 337 388 22,000 1,440 Climbing Denver Center
Mon 01:35:15 PM 40.2256 -104.9439 North 393 452 23,000 1,008 Climbing Denver Center
Mon 01:36:18 PM 40.3536 -104.9239 351° North 426 490 24,100 864 Climbing Denver Center
Mon 01:37:20 PM 40.4792 -104.9506 315° West 473 544 24,800 960 Climbing Denver Center
Mon 01:38:23 PM 40.5622 -105.0581 308° West 428 493 26,100 1,296 Climbing Denver Center
Mon 01:39:25 PM 40.6364 -105.1814 308° West 424 488 27,500 1,488 Climbing Denver Center
Mon 01:40:28 PM 40.7122 -105.3114 307° West 439 505 29,200 1,632 Climbing Denver Center
Mon 01:41:30 PM 40.7964 -105.4592 308° West 433 498 30,900 1,440 Climbing Denver Center
Mon 01:42:33 PM 40.8694 -105.5836 307° West 427 491 32,200 1,248 Climbing Denver Center
Mon 01:43:35 PM 40.9414 -105.7089 308° West 425 489 33,500 1,344 Climbing Denver Center
Mon 01:44:38 PM 41.0122 -105.8297 307° West 418 481 35,000 1,200 Climbing Denver Center
Mon 01:45:40 PM 41.0856 -105.9594 307° West 410 472 36,000 480 Climbing Denver Center
Mon 01:46:43 PM 41.1522 -106.0767 307° West 412 474 36,000  Level Denver Center
Mon 01:47:45 PM 41.2317 -106.2150 306° West 416 479 36,000 -48 Level Denver Center
Mon 01:48:47 PM 41.2961 -106.3311 307° West 414 476 35,900  Descending Denver Center
Mon 01:49:50 PM 41.3750 -106.4697 307° West 418 481 36,000 48 Climbing Denver Center
Mon 01:50:52 PM 41.4428 -106.5919 307° West 422 486 36,000  Level Denver Center
Mon 01:51:55 PM 41.5211 -106.7311 306° West 423 487 36,000  Level Denver Center
Mon 01:52:57 PM 41.5869 -106.8508 307° West 420 483 36,000  Level Denver Center
Mon 01:53:43 PM 41.6411 -106.9481 306° West 416 479 36,000  Level Salt Lake Center
Mon 01:54:45 PM 41.7181 -107.0878 306° West 417 480 36,000  Level Salt Lake Center
Mon 01:55:47 PM 41.7844 -107.2094 306° West 421 484 36,000  Level Salt Lake Center
Mon 01:56:49 PM 41.8611 -107.3506 306° West 421 484 36,000  Level Salt Lake Center
Mon 01:57:52 PM 41.9278 -107.4728 307° West 423 487 36,000  Level Salt Lake Center
Mon 01:58:54 PM 42.0064 -107.6144 305° West 424 488 36,000  Level Salt Lake Center
Mon 01:59:56 PM 42.0700 -107.7353 306° West 423 487 36,000  Level Salt Lake Center
Mon 02:00:59 PM 42.1444 -107.8744 306° West 415 478 36,000  Level Salt Lake Center
Mon 02:02:01 PM 42.2122 -107.9992 306° West 422 486 36,000  Level Salt Lake Center
Mon 02:03:03 PM 42.2872 -108.1411 306° West 421 484 36,000  Level Salt Lake Center
Mon 02:04:06 PM 42.3511 -108.2622 306° West 417 480 36,000  Level Salt Lake Center
Mon 02:05:08 PM 42.4256 -108.4033 305° West 416 479 36,000 48 Level Salt Lake Center
Mon 02:06:11 PM 42.4892 -108.5267 305° West 417 480 36,100  Climbing Salt Lake Center
Mon 02:07:13 PM 42.5642 -108.6697 305° West 418 481 36,000 -48 Descending Salt Lake Center
Mon 02:08:15 PM 42.6278 -108.7936 313° West 419 482 36,000  Level Salt Lake Center
Mon 02:09:18 PM 42.7142 -108.9214 317° Northwest 421 484 36,000  Level Salt Lake Center
Mon 02:10:20 PM 42.7964 -109.0264 317° Northwest 424 488 36,000 -240 Level Salt Lake Center
Mon 02:11:23 PM 42.8903 -109.1442 318° Northwest 416 479 35,500 -2,016 Descending Salt Lake Center
Mon 02:12:25 PM 42.9769 -109.2511 318° Northwest 409 471 31,800 -3,048 Descending Salt Lake Center
Mon 02:13:27 PM 43.0614 -109.3564 317° Northwest 421 484 29,200 -2,448 Descending Salt Lake Center
Mon 02:14:30 PM 43.1567 -109.4775 317° Northwest 419 482 26,700 -2,208 Descending Salt Lake Center
Mon 02:15:32 PM 43.2331 -109.5753 318° Northwest 399 459 24,600 -2,177 Descending Salt Lake Center
Mon 02:16:34 PM 43.3219 -109.6861 317° Northwest 388 447 22,200 -2,112 Descending Salt Lake Center
Mon 02:17:37 PM 43.3950 -109.7800 317° Northwest 379 436 20,200 -1,824 Descending Salt Lake Center
Mon 02:18:39 PM 43.4781 -109.8861 318° Northwest 352 405 18,400 -1,488 Descending Salt Lake Center
Mon 02:19:42 PM 43.5422 -109.9667 317° Northwest 343 395 17,100 -1,200 Descending Salt Lake Center
Mon 02:20:44 PM 43.6189 -110.0644 318° Northwest 335 386 15,900 -1,161 Descending Salt Lake Center
Mon 02:21:46 PM 43.6769 -110.1369 316° Northwest 293 337 14,700 -960 Descending Salt Lake Center
Mon 02:22:49 PM 43.7314 -110.2103 317° Northwest 278 320 13,900 -768 Descending Salt Lake Center
Mon 02:23:51 PM 43.7833 -110.2769 317° Northwest 262 302 13,100 -484 Descending Salt Lake Center
Mon 02:24:53 PM 43.8356 -110.3442 278° West 257 296 12,900 -528 Descending Salt Lake Center
Mon 02:25:56 PM 43.8467 -110.4567 283° West 240 276 12,000 -912 Descending Salt Lake Center
Mon 02:26:58 PM 43.8606 -110.5419 259° West 231 266 11,000 -629 Descending Salt Lake Center
Mon 02:28:00 PM 43.8500 -110.6178 200° South 231 266 10,700 -528 Descending Salt Lake Center
Mon 02:29:03 PM 43.7950 -110.6461 199° South 216 249 9,900 -768 Descending Salt Lake Center
Mon 02:30:05 PM 43.7519 -110.6664 199° South 183 211 9,100 -774 Descending Salt Lake Center

Login

Don't have an account? Register now (free) for customized features, flight alerts, and more!